createdAt,value
2019-04-14T00:00:27.835Z,2.83
2019-04-14T00:02:58.077Z,3.30
2019-04-14T00:05:28.206Z,2.27
2019-04-14T00:07:58.097Z,2.77
2019-04-14T00:10:26.919Z,2.33
2019-04-14T00:12:55.730Z,2.77
2019-04-14T00:15:30.978Z,2.80
2019-04-14T00:17:54.726Z,2.23
2019-04-14T00:20:23.389Z,2.50
2019-04-14T00:22:53.207Z,3.30
2019-04-14T00:25:22.103Z,3.10
2019-04-14T00:27:50.792Z,3.03
2019-04-14T00:30:21.033Z,2.50
2019-04-14T00:32:55.193Z,2.13
2019-04-14T00:35:38.564Z,2.37
2019-04-14T00:38:08.937Z,2.60
2019-04-14T00:40:43.189Z,2.40
2019-04-14T00:43:13.567Z,2.17
2019-04-14T00:45:50.744Z,2.33
2019-04-14T00:48:18.962Z,2.60
2019-04-14T00:50:47.311Z,2.40
2019-04-14T00:53:16.356Z,2.70
2019-04-14T00:55:44.355Z,2.10
2019-04-14T00:58:12.998Z,2.30
2019-04-14T01:00:42.996Z,1.97
2019-04-14T01:03:11.840Z,1.90
2019-04-14T01:05:41.544Z,1.90
2019-04-14T01:08:10.220Z,1.60
2019-04-14T01:10:39.177Z,1.80
2019-04-14T01:13:10.756Z,1.40
2019-04-14T01:15:49.088Z,1.20
2019-04-14T01:18:09.973Z,1.47
2019-04-14T01:20:38.839Z,1.27
2019-04-14T01:23:08.448Z,1.30
2019-04-14T01:25:37.438Z,1.60
2019-04-14T01:28:06.787Z,1.63
2019-04-14T01:30:35.766Z,1.40
2019-04-14T01:33:05.471Z,1.90
2019-04-14T01:35:35.653Z,1.63
2019-04-14T01:38:05.800Z,1.77
2019-04-14T01:40:35.864Z,1.63
2019-04-14T01:43:05.855Z,1.60
2019-04-14T01:45:35.907Z,1.90
2019-04-14T01:48:05.893Z,1.57
2019-04-14T01:50:52.311Z,1.70
2019-04-14T01:53:40.076Z,1.80
2019-04-14T01:56:10.368Z,1.60
2019-04-14T01:58:40.694Z,1.70
2019-04-14T02:01:14.932Z,1.83
2019-04-14T02:03:43.738Z,1.40
2019-04-14T02:06:13.529Z,1.60
2019-04-14T02:08:43.639Z,1.43
2019-04-14T02:11:13.618Z,1.20
2019-04-14T02:13:42.410Z,1.40
2019-04-14T02:16:22.988Z,1.50
2019-04-14T02:18:42.725Z,1.50
2019-04-14T02:21:12.737Z,1.20
2019-04-14T02:23:43.219Z,1.40
2019-04-14T02:26:13.181Z,1.27
2019-04-14T02:28:42.252Z,1.30
2019-04-14T02:31:24.665Z,1.20
2019-04-14T02:34:09.049Z,1.33
2019-04-14T02:36:40.277Z,1.27
2019-04-14T02:39:13.918Z,1.10
2019-04-14T02:41:49.333Z,1.30
2019-04-14T02:44:15.759Z,1.30
2019-04-14T02:46:47.845Z,1.20
2019-04-14T02:49:29.543Z,1.23
2019-04-14T02:51:42.506Z,1.30
2019-04-14T02:54:14.264Z,0.80
2019-04-14T02:56:45.399Z,1.23
2019-04-14T03:04:16.915Z,1.30
2019-04-14T03:06:41.430Z,1.03
2019-04-14T03:09:32.741Z,1.00
2019-04-14T03:11:48.962Z,1.80
2019-04-14T03:14:19.649Z,1.50
2019-04-14T03:17:11.166Z,1.07
2019-04-14T03:19:43.950Z,1.10
2019-04-14T03:22:19.939Z,1.27
2019-04-14T03:24:39.138Z,1.00
2019-04-14T03:27:25.097Z,1.10
2019-04-14T03:29:55.315Z,1.00
2019-04-14T03:32:42.592Z,1.10
2019-04-14T03:35:05.460Z,1.10
2019-04-14T03:42:31.781Z,1.10
2019-04-14T03:44:48.598Z,1.43
2019-04-14T03:47:25.728Z,1.20
2019-04-14T03:49:56.385Z,1.20
2019-04-14T03:52:33.239Z,1.00
2019-04-14T03:54:45.564Z,1.10
2019-04-14T03:56:59.848Z,0.97
2019-04-14T03:59:28.620Z,1.03
2019-04-14T04:01:58.507Z,1.07
2019-04-14T04:04:27.716Z,1.13
2019-04-14T04:06:57.463Z,1.00
2019-04-14T04:09:34.354Z,1.07
2019-04-14T04:12:03.202Z,1.10
2019-04-14T04:14:31.839Z,1.30
2019-04-14T04:17:02.050Z,1.27
2019-04-14T04:19:44.786Z,1.30
2019-04-14T04:22:31.201Z,1.30
2019-04-14T04:25:05.313Z,1.33
2019-04-14T04:27:52.624Z,1.10
2019-04-14T04:30:23.138Z,1.17
2019-04-14T04:32:53.686Z,1.37
2019-04-14T04:35:32.887Z,1.47
2019-04-14T04:38:18.401Z,1.20
2019-04-14T04:40:47.111Z,1.20
2019-04-14T04:43:16.840Z,1.10
2019-04-14T04:45:45.823Z,0.90
2019-04-14T04:48:15.205Z,1.00
2019-04-14T04:50:45.252Z,1.20
2019-04-14T04:53:14.395Z,1.00
2019-04-14T04:55:43.871Z,1.07
2019-04-14T04:58:12.683Z,1.40
2019-04-14T05:00:41.673Z,1.30
2019-04-14T05:03:10.783Z,1.40
2019-04-14T05:06:15.397Z,1.10
2019-04-14T05:08:45.699Z,1.17
2019-04-14T05:11:16.539Z,1.10
2019-04-14T05:13:46.889Z,1.20
2019-04-14T05:16:15.555Z,0.97
2019-04-14T05:18:44.254Z,1.10
2019-04-14T05:21:12.937Z,0.87
2019-04-14T05:23:41.639Z,0.80
2019-04-14T05:26:11.295Z,0.80
2019-04-14T05:28:40.060Z,0.70
2019-04-14T05:31:09.792Z,0.93
2019-04-14T05:33:38.725Z,0.70
2019-04-14T05:36:08.573Z,0.70
2019-04-14T05:38:38.529Z,0.80
2019-04-14T05:41:07.426Z,0.80
2019-04-14T05:43:44.707Z,0.80
2019-04-14T05:46:07.648Z,0.70
2019-04-14T05:48:36.430Z,0.53
2019-04-14T05:51:06.283Z,1.00
2019-04-14T05:53:35.318Z,0.67
2019-04-14T05:56:05.787Z,0.60
2019-04-14T05:58:36.534Z,0.40
2019-04-14T06:01:05.267Z,0.50
2019-04-14T06:03:34.295Z,0.60
2019-04-14T06:06:02.957Z,0.60
2019-04-14T06:08:31.672Z,0.83
2019-04-14T06:11:00.462Z,0.50
2019-04-14T06:13:29.172Z,0.63
2019-04-14T06:15:57.874Z,0.50
2019-04-14T06:18:26.622Z,0.50
2019-04-14T06:20:55.329Z,0.50
2019-04-14T06:23:24.066Z,0.60
2019-04-14T06:25:52.795Z,0.70
2019-04-14T06:28:21.576Z,0.70
2019-04-14T06:30:57.985Z,0.70
2019-04-14T06:33:28.269Z,0.70
2019-04-14T06:36:14.827Z,0.90
2019-04-14T06:38:48.119Z,0.30
2019-04-14T06:41:18.555Z,0.50
2019-04-14T06:43:49.155Z,1.00
2019-04-14T06:46:17.575Z,3.00
2019-04-14T06:48:46.244Z,1.40
2019-04-14T06:51:15.089Z,3.73
2019-04-14T06:53:43.745Z,0.87
2019-04-14T06:56:12.436Z,0.67
2019-04-14T06:58:41.107Z,0.70
2019-04-14T07:01:09.794Z,1.20
2019-04-14T07:03:38.465Z,0.67
2019-04-14T07:06:07.162Z,0.60
2019-04-14T07:08:35.835Z,0.50
2019-04-14T07:11:04.522Z,0.50
2019-04-14T07:13:33.194Z,0.80
2019-04-14T07:16:01.892Z,0.87
2019-04-14T07:18:30.553Z,0.60
2019-04-14T07:20:59.227Z,0.50
2019-04-14T07:23:27.904Z,0.67
2019-04-14T07:25:56.598Z,0.50
2019-04-14T07:28:25.255Z,0.63
2019-04-14T07:31:01.687Z,0.50
2019-04-14T07:33:34.179Z,0.50
2019-04-14T07:36:20.921Z,0.50
2019-04-14T07:38:53.843Z,0.60
2019-04-14T07:41:27.107Z,0.60
2019-04-14T07:44:15.620Z,0.50
2019-04-14T07:46:48.980Z,0.40
2019-04-14T07:49:28.488Z,0.53
2019-04-14T07:52:15.108Z,0.40
2019-04-14T07:54:45.398Z,0.40
2019-04-14T07:57:15.683Z,0.60
2019-04-14T07:59:52.236Z,0.40
2019-04-14T08:02:28.575Z,0.50
2019-04-14T08:04:58.850Z,1.13
2019-04-14T08:07:28.466Z,0.60
2019-04-14T08:09:57.182Z,0.50
2019-04-14T08:12:25.897Z,0.40
2019-04-14T08:14:54.580Z,0.50
2019-04-14T08:17:23.325Z,0.60
2019-04-14T08:19:52.047Z,0.57
2019-04-14T08:22:20.733Z,0.60
2019-04-14T08:24:49.475Z,0.70
2019-04-14T08:27:18.289Z,0.67
2019-04-14T08:29:46.986Z,0.70
2019-04-14T08:32:15.760Z,0.87
2019-04-14T08:34:44.445Z,0.60
2019-04-14T08:37:13.125Z,0.40
2019-04-14T08:39:41.930Z,0.63
2019-04-14T08:42:18.391Z,0.50
2019-04-14T08:44:48.627Z,0.60
2019-04-14T08:47:37.264Z,0.47
2019-04-14T08:50:09.035Z,0.40
2019-04-14T08:52:42.074Z,0.60
2019-04-14T08:55:28.565Z,0.40
2019-04-14T08:57:58.804Z,0.50
2019-04-14T09:00:35.063Z,0.53
2019-04-14T09:03:14.341Z,0.40
2019-04-14T09:05:59.523Z,0.55
2019-04-14T09:08:32.613Z,0.78
2019-04-14T09:11:05.879Z,0.60
2019-04-14T09:13:35.354Z,0.60
2019-04-14T09:16:04.076Z,0.50
2019-04-14T09:18:32.739Z,0.70
2019-04-14T09:21:01.429Z,0.60
2019-04-14T09:23:30.109Z,0.50
2019-04-14T09:25:58.800Z,0.50
2019-04-14T09:28:27.483Z,0.50
2019-04-14T09:30:56.152Z,0.60
2019-04-14T09:33:24.841Z,0.37
2019-04-14T09:35:53.510Z,0.70
2019-04-14T09:38:22.189Z,0.67
2019-04-14T09:40:50.912Z,0.50
2019-04-14T09:43:19.635Z,0.70
2019-04-14T09:45:48.312Z,0.60
2019-04-14T09:48:17.123Z,0.60
2019-04-14T09:50:45.792Z,0.43
2019-04-14T09:53:14.462Z,0.50
2019-04-14T09:55:43.202Z,0.60
2019-04-14T09:58:11.898Z,0.57
2019-04-14T10:00:41.074Z,0.73
2019-04-14T10:03:10.384Z,0.83
2019-04-14T10:05:39.063Z,0.70
2019-04-14T10:08:07.750Z,0.80
2019-04-14T10:10:36.505Z,0.40
2019-04-14T10:13:05.159Z,0.60
2019-04-14T10:15:33.839Z,0.50
2019-04-14T10:18:02.538Z,0.53
2019-04-14T10:20:31.198Z,0.50
2019-04-14T10:22:59.867Z,0.40
2019-04-14T10:25:28.577Z,0.50
2019-04-14T10:27:57.249Z,0.50
2019-04-14T10:30:25.929Z,0.50
2019-04-14T10:32:57.201Z,0.70
2019-04-14T10:35:25.870Z,0.40
2019-04-14T10:37:54.592Z,0.57
2019-04-14T10:40:23.257Z,0.50
2019-04-14T10:42:51.930Z,0.57
2019-04-14T10:45:20.609Z,0.40
2019-04-14T10:47:49.406Z,0.57
2019-04-14T10:50:30.199Z,0.50
2019-04-14T10:52:48.496Z,0.60
2019-04-14T10:55:17.177Z,0.60
2019-04-14T10:57:45.893Z,0.50
2019-04-14T11:00:16.169Z,0.53
2019-04-14T11:02:44.861Z,0.40
2019-04-14T11:05:13.615Z,0.90
2019-04-14T11:07:42.298Z,0.50
2019-04-14T11:10:11.871Z,0.70
2019-04-14T11:12:40.551Z,0.60
2019-04-14T11:15:10.542Z,0.60
2019-04-14T11:17:39.260Z,0.50
2019-04-14T11:20:09.146Z,0.50
2019-04-14T11:22:37.802Z,0.80
2019-04-14T11:25:07.981Z,0.67
2019-04-14T11:27:36.653Z,0.50
2019-04-14T11:30:08.816Z,0.60
2019-04-14T11:32:45.035Z,0.70
2019-04-14T11:35:16.615Z,0.50
2019-04-14T11:38:03.416Z,0.80
2019-04-14T11:40:50.047Z,0.70
2019-04-14T11:43:18.728Z,0.50
2019-04-14T11:45:47.409Z,0.60
2019-04-14T11:48:16.087Z,0.53
2019-04-14T11:50:44.769Z,0.70
2019-04-14T11:53:13.431Z,0.67
2019-04-14T11:55:42.270Z,0.60
2019-04-14T11:58:10.941Z,0.60
2019-04-14T12:00:59.192Z,0.50
2019-04-14T12:03:45.624Z,0.60
2019-04-14T12:06:31.001Z,0.70
2019-04-14T12:09:01.246Z,0.50
2019-04-14T12:11:29.935Z,0.83
2019-04-14T12:13:58.611Z,0.60
2019-04-14T12:16:27.308Z,0.60
2019-04-14T12:18:56.166Z,0.50
2019-04-14T12:21:24.919Z,0.70
2019-04-14T12:23:53.570Z,0.70
2019-04-14T12:26:22.251Z,0.60
2019-04-14T12:28:51.572Z,0.50
2019-04-14T12:31:20.286Z,0.87
2019-04-14T12:33:48.966Z,0.67
2019-04-14T12:36:17.613Z,0.70
2019-04-14T12:38:46.283Z,0.50
2019-04-14T12:41:17.697Z,0.63
2019-04-14T12:43:48.057Z,0.50
2019-04-14T12:46:21.076Z,0.50
2019-04-14T12:48:54.030Z,0.40
2019-04-14T12:51:27.076Z,0.60
2019-04-14T12:53:55.761Z,0.40
2019-04-14T12:56:26.011Z,0.45
2019-04-14T12:58:56.275Z,0.40
2019-04-14T13:01:26.546Z,0.50
2019-04-14T13:03:55.194Z,0.30
2019-04-14T13:06:23.867Z,0.60
2019-04-14T13:08:52.550Z,0.50
2019-04-14T13:11:21.225Z,0.50
2019-04-14T13:13:50.399Z,0.45
2019-04-14T13:16:19.092Z,0.60
2019-04-14T13:18:47.774Z,0.60
2019-04-14T13:21:16.422Z,0.37
2019-04-14T13:23:45.110Z,0.50
2019-04-14T13:26:13.818Z,0.60
2019-04-14T13:28:42.500Z,0.47
2019-04-14T13:31:11.177Z,0.50
2019-04-14T13:33:39.878Z,0.30
2019-04-14T13:36:08.553Z,0.53
2019-04-14T13:38:37.224Z,1.00
2019-04-14T13:41:05.895Z,0.50
2019-04-14T13:43:34.583Z,0.73
2019-04-14T13:46:03.267Z,0.93
2019-04-14T13:48:31.931Z,0.50
2019-04-14T13:51:00.620Z,0.50
2019-04-14T13:53:29.303Z,0.50
2019-04-14T13:55:57.991Z,0.50
2019-04-14T13:58:26.677Z,0.80
2019-04-14T14:00:55.343Z,0.80
2019-04-14T14:03:24.019Z,0.57
2019-04-14T14:05:52.699Z,0.60
2019-04-14T14:08:21.368Z,1.10
2019-04-14T14:10:51.734Z,0.87
2019-04-14T14:13:38.342Z,1.07
2019-04-14T14:19:09.093Z,1.03
2019-04-14T14:21:39.398Z,1.13
2019-04-14T14:24:18.525Z,0.90
2019-04-14T14:26:48.834Z,0.90
2019-04-14T14:29:17.501Z,0.80
2019-04-14T14:31:46.268Z,1.10
2019-04-14T14:34:14.955Z,0.80
2019-04-14T14:36:43.644Z,0.97
2019-04-14T14:39:13.904Z,0.80
2019-04-14T14:41:42.596Z,0.90
2019-04-14T14:44:11.345Z,0.97
2019-04-14T14:46:53.527Z,0.97
2019-04-14T14:49:29.688Z,0.73
2019-04-14T14:52:05.833Z,0.90
2019-04-14T14:54:34.524Z,0.90
2019-04-14T14:57:03.208Z,0.90
2019-04-14T14:59:33.338Z,0.77
2019-04-14T15:02:02.048Z,0.90
2019-04-14T15:04:30.719Z,1.10
2019-04-14T15:06:59.407Z,1.10
2019-04-14T15:09:28.082Z,0.80
2019-04-14T15:11:56.772Z,1.00
2019-04-14T15:14:25.483Z,0.87
2019-04-14T15:16:54.610Z,1.13
2019-04-14T15:19:24.037Z,1.10
2019-04-14T15:21:52.807Z,0.97
2019-04-14T15:24:21.494Z,1.00
2019-04-14T15:26:50.168Z,1.10
2019-04-14T15:29:18.843Z,0.90
2019-04-14T15:31:47.559Z,1.10
2019-04-14T15:34:16.247Z,1.40
2019-04-14T15:36:45.136Z,1.43
2019-04-14T15:39:13.844Z,1.20
2019-04-14T15:41:42.811Z,1.50
2019-04-14T15:44:11.547Z,1.50
2019-04-14T15:46:40.281Z,1.30
2019-04-14T15:49:09.085Z,1.50
2019-04-14T15:51:37.832Z,1.63
2019-04-14T15:54:06.681Z,1.30
2019-04-14T15:56:40.387Z,2.07
2019-04-14T15:59:22.555Z,2.00
2019-04-14T16:01:55.891Z,2.07
2019-04-14T16:04:26.123Z,2.33
2019-04-14T16:06:56.383Z,2.37
2019-04-14T16:09:26.626Z,1.90
2019-04-14T16:12:13.137Z,1.97
2019-04-14T16:14:46.460Z,2.10
2019-04-14T16:17:34.224Z,2.53
2019-04-14T16:20:07.578Z,1.90
2019-04-14T16:22:38.985Z,2.40
2019-04-14T16:25:07.448Z,2.03
2019-04-14T16:27:53.955Z,2.53
2019-04-14T16:30:36.463Z,2.03
2019-04-14T16:33:06.976Z,1.57
2019-04-14T16:35:38.347Z,1.57
2019-04-14T16:38:07.332Z,1.30
2019-04-14T16:40:36.738Z,1.00
2019-04-14T16:43:05.605Z,2.00
2019-04-14T16:45:35.577Z,1.80
2019-04-14T16:48:04.585Z,1.20
2019-04-14T16:50:33.468Z,1.60
2019-04-14T16:53:09.807Z,1.60
2019-04-14T16:55:40.292Z,2.33
2019-04-14T16:58:22.810Z,1.87
2019-04-14T17:01:05.875Z,2.10
2019-04-14T17:03:34.684Z,1.67
2019-04-14T17:06:03.372Z,1.27
2019-04-14T17:08:32.035Z,1.50
2019-04-14T17:11:00.729Z,1.50
2019-04-14T17:13:31.004Z,1.37
2019-04-14T17:16:17.758Z,1.20
2019-04-14T17:19:03.263Z,1.83
2019-04-14T17:21:45.353Z,1.80
2019-04-14T17:24:17.325Z,1.53
2019-04-14T17:26:58.372Z,1.63
2019-04-14T17:29:34.532Z,1.80
2019-04-14T17:32:14.029Z,1.73
2019-04-14T17:34:44.257Z,2.27
2019-04-14T17:37:14.511Z,1.70
2019-04-14T17:39:50.571Z,1.67
2019-04-14T17:42:26.916Z,1.70
2019-04-14T17:45:00.008Z,1.67
2019-04-14T17:47:39.514Z,1.70
2019-04-14T17:50:17.968Z,2.23
2019-04-14T17:52:48.241Z,2.30
2019-04-14T17:55:21.765Z,1.50
2019-04-14T17:57:58.221Z,1.80
2019-04-14T18:00:35.629Z,1.43
2019-04-14T18:03:12.173Z,1.70
2019-04-14T18:05:48.326Z,2.17
2019-04-14T18:08:30.862Z,2.13
2019-04-14T18:11:10.011Z,2.00
2019-04-14T18:13:40.294Z,2.60
2019-04-14T18:16:16.510Z,3.20
2019-04-14T18:18:46.790Z,2.53
2019-04-14T18:21:16.158Z,3.03
2019-04-14T18:23:44.847Z,2.93
2019-04-14T18:26:13.538Z,2.57
2019-04-14T18:28:43.756Z,1.97
2019-04-14T18:31:14.029Z,2.03
2019-04-14T18:33:55.821Z,2.03
2019-04-14T18:36:42.898Z,2.70
2019-04-14T18:39:13.614Z,2.23
2019-04-14T18:42:00.049Z,2.13
2019-04-14T18:44:36.294Z,1.80
2019-04-14T18:47:06.613Z,1.90
2019-04-14T18:49:37.317Z,1.83
2019-04-14T18:52:13.386Z,2.77
2019-04-14T18:54:54.838Z,2.63
2019-04-14T18:57:28.531Z,2.40
2019-04-14T18:59:59.131Z,2.37
2019-04-14T19:02:27.890Z,2.10
2019-04-14T19:04:56.656Z,2.30
2019-04-14T19:07:25.526Z,2.90
2019-04-14T19:09:54.578Z,2.73
2019-04-14T19:12:25.028Z,3.70
2019-04-14T19:14:55.352Z,5.07
2019-04-14T19:17:27.731Z,5.10
2019-04-14T19:20:02.146Z,3.63
2019-04-14T19:22:28.853Z,4.40
2019-04-14T19:25:07.431Z,3.73
2019-04-14T19:27:28.007Z,5.40
2019-04-14T19:29:56.709Z,3.33
2019-04-14T19:32:25.450Z,3.20
2019-04-14T19:34:54.208Z,4.47
2019-04-14T19:37:22.933Z,2.73
2019-04-14T19:39:51.733Z,1.63
2019-04-14T19:42:20.439Z,3.77
2019-04-14T19:44:49.126Z,3.33
2019-04-14T19:47:17.864Z,2.97
2019-04-14T19:49:46.584Z,2.77
2019-04-14T19:52:15.289Z,2.47
2019-04-14T19:54:44.021Z,2.17
2019-04-14T19:57:12.950Z,2.40
2019-04-14T19:59:41.684Z,1.73
2019-04-14T20:02:10.522Z,1.73
2019-04-14T20:04:39.396Z,1.90
2019-04-14T20:07:08.376Z,2.20
2019-04-14T20:09:37.221Z,1.90
2019-04-14T20:12:06.445Z,2.50
2019-04-14T20:14:35.334Z,3.83
2019-04-14T20:17:11.704Z,3.60
2019-04-14T20:19:41.940Z,2.93
2019-04-14T20:22:12.185Z,2.60
2019-04-14T20:24:42.448Z,3.00
2019-04-14T20:27:24.386Z,3.07
2019-04-14T20:29:54.705Z,2.17
2019-04-14T20:32:24.958Z,2.33
2019-04-14T20:34:53.686Z,1.93
2019-04-14T20:37:22.364Z,2.07
2019-04-14T20:39:51.030Z,1.40
2019-04-14T20:42:19.814Z,1.67
2019-04-14T20:44:48.475Z,1.40
2019-04-14T20:47:17.399Z,2.20
2019-04-14T20:49:46.215Z,1.93
2019-04-14T20:52:15.048Z,1.77
2019-04-14T20:54:44.218Z,2.87
2019-04-14T20:57:13.010Z,2.40
2019-04-14T20:59:41.749Z,2.07
2019-04-14T21:02:12.247Z,2.33
2019-04-14T21:04:54.481Z,2.37
2019-04-14T21:07:40.212Z,2.33
2019-04-14T21:10:26.227Z,2.07
2019-04-14T21:12:59.523Z,2.47
2019-04-14T21:15:32.864Z,2.30
2019-04-14T21:18:03.275Z,2.57
2019-04-14T21:20:49.849Z,2.37
2019-04-14T21:23:20.202Z,2.50
2019-04-14T21:26:01.300Z,2.50
2019-04-14T21:28:31.916Z,1.80
2019-04-14T21:34:01.544Z,2.17
2019-04-14T21:36:48.032Z,1.90
2019-04-14T21:39:20.983Z,1.90
2019-04-14T21:41:53.487Z,2.40
2019-04-14T21:44:22.144Z,2.57
2019-04-14T21:46:50.815Z,1.40
2019-04-14T21:49:19.487Z,2.40
2019-04-14T21:51:49.743Z,1.70
2019-04-14T21:54:18.520Z,2.00
2019-04-14T21:56:48.738Z,2.20
2019-04-14T21:59:18.987Z,2.10
2019-04-14T22:02:04.224Z,2.53
2019-04-14T22:04:34.463Z,2.90
2019-04-14T22:07:04.698Z,2.57
2019-04-14T22:09:35.025Z,2.13
2019-04-14T22:12:05.340Z,2.23
2019-04-14T22:14:34.077Z,1.90
2019-04-14T22:17:02.780Z,1.87
2019-04-14T22:19:31.511Z,1.90
2019-04-14T22:22:00.188Z,1.87
2019-04-14T22:24:28.875Z,1.60
2019-04-14T22:26:57.564Z,1.57
2019-04-14T22:29:26.241Z,1.37
2019-04-14T22:31:54.914Z,1.53
2019-04-14T22:34:23.566Z,1.07
2019-04-14T22:36:52.264Z,1.47
2019-04-14T22:39:21.052Z,1.40
2019-04-14T22:41:49.768Z,0.80
2019-04-14T22:44:18.474Z,0.90
2019-04-14T22:46:47.243Z,1.03
2019-04-14T22:49:15.960Z,1.47
2019-04-14T22:51:44.664Z,1.30
2019-04-14T22:54:13.414Z,1.60
2019-04-14T22:56:42.172Z,1.80
2019-04-14T22:59:10.992Z,2.03
2019-04-14T23:01:41.274Z,2.13
2019-04-14T23:04:11.559Z,2.50
2019-04-14T23:06:58.187Z,1.70
2019-04-14T23:09:28.482Z,2.10
2019-04-14T23:12:01.831Z,1.90
2019-04-14T23:14:35.324Z,1.90
2019-04-14T23:17:21.627Z,2.13
2019-04-14T23:20:06.855Z,1.80
2019-04-14T23:22:46.225Z,2.33
2019-04-14T23:25:14.897Z,1.80
2019-04-14T23:27:43.593Z,2.00
2019-04-14T23:30:12.635Z,2.30
2019-04-14T23:32:41.330Z,2.33
2019-04-14T23:35:10.181Z,2.00
2019-04-14T23:37:38.869Z,2.33
2019-04-14T23:40:08.146Z,2.07
2019-04-14T23:42:36.821Z,2.13
2019-04-14T23:45:07.459Z,2.30
2019-04-14T23:47:36.130Z,2.30
2019-04-14T23:50:07.312Z,2.00
2019-04-14T23:52:35.987Z,2.30
2019-04-14T23:55:06.592Z,2.30
2019-04-14T23:57:35.647Z,2.30
